createdAt,value
2019-02-26T00:00:47.004Z,6.12
2019-02-26T00:03:13.065Z,5.37
2019-02-26T00:05:41.272Z,6.37
2019-02-26T00:08:09.412Z,4.80
2019-02-26T00:10:39.059Z,4.97
2019-02-26T00:13:07.372Z,5.83
2019-02-26T00:15:37.912Z,5.03
2019-02-26T00:18:07.433Z,5.97
2019-02-26T00:20:37.333Z,5.97
2019-02-26T00:23:05.187Z,5.60
2019-02-26T00:25:33.360Z,5.40
2019-02-26T00:28:01.498Z,4.67
2019-02-26T00:30:31.199Z,5.83
2019-02-26T00:33:02.515Z,5.85
2019-02-26T00:35:29.767Z,5.03
2019-02-26T00:37:57.967Z,6.25
2019-02-26T00:40:26.099Z,4.47
2019-02-26T00:42:56.815Z,6.35
2019-02-26T00:45:26.899Z,4.45
2019-02-26T00:47:54.011Z,5.28
2019-02-26T00:50:22.154Z,6.30
2019-02-26T00:52:52.158Z,5.28
2019-02-26T00:55:23.189Z,5.40
2019-02-26T00:57:50.187Z,5.58
2019-02-26T01:00:18.487Z,5.65
2019-02-26T01:02:46.671Z,6.00
2019-02-26T01:05:16.091Z,5.15
2019-02-26T01:07:50.230Z,4.90
2019-02-26T01:10:21.065Z,4.92
2019-02-26T01:12:48.450Z,4.67
2019-02-26T01:15:16.585Z,5.28
2019-02-26T01:17:44.765Z,4.67
2019-02-26T01:20:14.794Z,4.85
2019-02-26T01:22:45.389Z,5.83
2019-02-26T01:25:15.202Z,6.47
2019-02-26T01:27:43.634Z,5.70
2019-02-26T01:30:18.240Z,6.40
2019-02-26T01:32:43.912Z,5.40
2019-02-26T01:35:12.971Z,5.08
2019-02-26T01:37:41.358Z,5.53
2019-02-26T01:40:13.757Z,6.37
2019-02-26T01:42:40.637Z,5.00
2019-02-26T01:45:10.145Z,5.10
2019-02-26T01:47:40.349Z,5.80
2019-02-26T01:50:11.117Z,5.75
2019-02-26T01:52:39.343Z,5.83
2019-02-26T01:55:09.025Z,5.05
2019-02-26T01:57:37.189Z,5.15
2019-02-26T02:00:11.663Z,4.95
2019-02-26T02:02:39.879Z,5.37
2019-02-26T02:05:08.175Z,5.28
2019-02-26T02:07:36.381Z,5.47
2019-02-26T02:10:04.630Z,5.12
2019-02-26T02:12:34.517Z,3.72
2019-02-26T02:15:02.671Z,4.00
2019-02-26T02:17:32.864Z,6.20
2019-02-26T02:20:03.125Z,5.67
2019-02-26T02:22:30.703Z,6.70
2019-02-26T02:24:58.863Z,5.95
2019-02-26T02:27:29.853Z,5.85
2019-02-26T02:29:57.792Z,5.55
2019-02-26T02:32:28.666Z,5.72
2019-02-26T02:35:00.551Z,3.60
2019-02-26T02:37:26.966Z,4.95
2019-02-26T02:39:56.333Z,5.12
2019-02-26T02:42:24.492Z,6.12
2019-02-26T02:44:52.899Z,6.75
2019-02-26T02:47:21.111Z,6.47
2019-02-26T02:49:49.468Z,4.55
2019-02-26T02:52:17.575Z,5.08
2019-02-26T02:54:47.527Z,5.28
2019-02-26T02:57:15.637Z,3.33
2019-02-26T02:59:43.989Z,4.75
2019-02-26T03:02:14.470Z,6.60
2019-02-26T03:04:42.783Z,5.60
2019-02-26T03:07:11.133Z,4.65
2019-02-26T03:09:40.696Z,4.00
2019-02-26T03:12:09.195Z,5.40
2019-02-26T03:14:39.063Z,5.67
2019-02-26T03:17:09.218Z,5.97
2019-02-26T03:19:40.404Z,5.47
2019-02-26T03:22:09.620Z,5.85
2019-02-26T03:24:37.185Z,5.37
2019-02-26T03:27:05.350Z,6.55
2019-02-26T03:29:33.642Z,6.60
2019-02-26T03:32:01.831Z,7.28
2019-02-26T03:34:30.055Z,8.18
2019-02-26T03:36:59.749Z,7.87
2019-02-26T03:39:28.200Z,7.37
2019-02-26T03:41:56.545Z,7.35
2019-02-26T03:44:24.664Z,5.92
2019-02-26T03:46:52.830Z,5.47
2019-02-26T03:49:20.935Z,5.92
2019-02-26T03:51:49.115Z,5.95
2019-02-26T03:54:17.332Z,6.95
2019-02-26T03:56:45.633Z,6.78
2019-02-26T03:59:13.787Z,6.15
2019-02-26T04:01:41.975Z,6.10
2019-02-26T04:04:10.246Z,6.50
2019-02-26T04:06:40.551Z,4.87
2019-02-26T04:09:10.932Z,4.62
2019-02-26T04:11:39.611Z,5.80
2019-02-26T04:14:12.098Z,6.80
2019-02-26T04:16:40.442Z,5.50
2019-02-26T04:19:08.928Z,6.03
2019-02-26T04:22:15.302Z,3.52
2019-02-26T04:24:43.325Z,5.90
2019-02-26T04:28:02.728Z,5.97
2019-02-26T04:31:16.291Z,6.50
2019-02-26T04:34:13.755Z,5.72
2019-02-26T04:36:51.617Z,6.65
2019-02-26T04:39:44.952Z,4.85
2019-02-26T04:43:10.465Z,5.40
2019-02-26T04:46:17.137Z,6.20
2019-02-26T04:48:45.456Z,5.58
2019-02-26T04:51:13.895Z,5.33
2019-02-26T04:53:42.436Z,5.92
2019-02-26T04:56:12.751Z,6.15
2019-02-26T04:58:42.474Z,6.20
2019-02-26T05:01:12.847Z,7.10
2019-02-26T05:03:40.552Z,6.67
2019-02-26T05:06:10.828Z,6.40
2019-02-26T05:08:40.319Z,4.58
2019-02-26T05:11:08.673Z,7.22
2019-02-26T05:13:36.792Z,4.33
2019-02-26T05:16:05.583Z,6.55
2019-02-26T05:18:34.511Z,7.60
2019-02-26T05:21:06.917Z,8.33
2019-02-26T05:23:33.616Z,6.37
2019-02-26T05:26:05.217Z,8.20
2019-02-26T05:28:35.680Z,6.83
2019-02-26T05:31:03.659Z,7.22
2019-02-26T05:33:32.893Z,3.08
2019-02-26T05:36:01.000Z,4.97
2019-02-26T05:38:30.598Z,8.40
2019-02-26T05:40:59.064Z,7.67
2019-02-26T05:43:28.203Z,6.42
2019-02-26T05:46:00.430Z,8.35
2019-02-26T05:48:26.923Z,7.83
2019-02-26T05:50:57.347Z,7.62
2019-02-26T05:53:25.014Z,8.68
2019-02-26T05:55:54.200Z,8.18
2019-02-26T05:58:23.160Z,7.10
2019-02-26T06:00:51.481Z,6.45
2019-02-26T06:03:19.676Z,7.12
2019-02-26T06:05:48.922Z,7.17
2019-02-26T06:08:18.036Z,7.35
2019-02-26T06:10:46.259Z,6.58
2019-02-26T06:13:15.658Z,8.15
2019-02-26T06:15:43.960Z,7.22
2019-02-26T06:18:12.191Z,7.35
2019-02-26T06:20:40.402Z,8.05
2019-02-26T06:23:08.913Z,7.60
2019-02-26T06:25:37.158Z,7.60
2019-02-26T06:28:07.706Z,6.25
2019-02-26T06:30:35.221Z,7.28
2019-02-26T06:33:04.358Z,6.90
2019-02-26T06:35:33.770Z,6.67
2019-02-26T06:38:04.595Z,7.78
2019-02-26T06:40:36.725Z,7.08
2019-02-26T06:43:03.085Z,6.83
2019-02-26T06:45:31.455Z,7.40
2019-02-26T06:47:59.749Z,7.50
2019-02-26T06:50:28.221Z,7.65
2019-02-26T06:52:56.952Z,7.80
2019-02-26T06:55:25.099Z,10.45
2019-02-26T06:57:55.188Z,8.75
2019-02-26T07:00:25.311Z,8.40
2019-02-26T07:02:53.255Z,8.20
2019-02-26T07:05:23.830Z,8.70
2019-02-26T07:07:54.082Z,9.03
2019-02-26T07:10:24.311Z,7.13
2019-02-26T07:12:51.147Z,6.93
2019-02-26T07:15:19.491Z,8.15
2019-02-26T07:17:47.764Z,8.83
2019-02-26T07:20:15.874Z,8.15
2019-02-26T07:22:46.794Z,14.10
2019-02-26T07:25:17.982Z,12.78
2019-02-26T07:27:44.595Z,12.25
2019-02-26T07:30:12.754Z,13.32
2019-02-26T07:32:43.044Z,12.37
2019-02-26T07:35:13.113Z,11.30
2019-02-26T07:37:40.943Z,9.93
2019-02-26T07:40:11.084Z,8.63
2019-02-26T07:42:39.606Z,10.10
2019-02-26T07:45:15.143Z,10.43
2019-02-26T07:47:38.996Z,9.98
2019-02-26T07:50:11.152Z,9.65
2019-02-26T07:52:38.141Z,9.98
2019-02-26T07:55:09.241Z,11.33
2019-02-26T07:57:36.613Z,11.20
2019-02-26T08:00:06.264Z,10.15
2019-02-26T08:02:35.400Z,10.60
2019-02-26T08:05:04.776Z,9.40
2019-02-26T08:07:32.992Z,9.33
2019-02-26T08:10:01.962Z,9.50
2019-02-26T08:12:30.960Z,8.88
2019-02-26T08:15:02.392Z,7.60
2019-02-26T08:17:29.916Z,6.55
2019-02-26T08:19:58.143Z,6.67
2019-02-26T08:22:27.518Z,5.97
2019-02-26T08:24:58.063Z,6.75
2019-02-26T08:27:26.816Z,6.37
2019-02-26T08:29:57.017Z,6.62
2019-02-26T08:32:27.953Z,7.03
2019-02-26T08:34:59.259Z,7.67
2019-02-26T08:37:25.799Z,7.90
2019-02-26T08:39:54.927Z,6.87
2019-02-26T08:42:23.776Z,7.87
2019-02-26T08:44:54.235Z,7.67
2019-02-26T08:47:23.520Z,7.12
2019-02-26T08:49:51.779Z,8.13
2019-02-26T08:52:22.018Z,7.10
2019-02-26T08:54:49.852Z,6.20
2019-02-26T08:57:17.961Z,6.42
2019-02-26T08:59:47.301Z,7.17
2019-02-26T09:02:15.975Z,6.10
2019-02-26T09:04:45.076Z,6.35
2019-02-26T09:07:15.946Z,6.70
2019-02-26T09:09:45.085Z,7.70
2019-02-26T09:12:15.221Z,6.90
2019-02-26T09:14:45.709Z,5.97
2019-02-26T09:17:13.606Z,7.87
2019-02-26T09:19:41.748Z,8.08
2019-02-26T09:22:14.022Z,6.80
2019-02-26T09:24:39.873Z,6.60
2019-02-26T09:27:08.473Z,6.65
2019-02-26T09:29:39.119Z,6.58
2019-02-26T09:32:09.195Z,6.05
2019-02-26T09:34:39.707Z,7.15
2019-02-26T09:37:07.955Z,6.40
2019-02-26T09:39:38.920Z,6.97
2019-02-26T09:42:09.030Z,6.62
2019-02-26T09:44:36.632Z,7.87
2019-02-26T09:47:07.370Z,7.45
2019-02-26T09:49:35.736Z,6.37
2019-02-26T09:52:06.302Z,7.12
2019-02-26T09:54:37.588Z,7.53
2019-02-26T09:57:03.992Z,7.20
2019-02-26T09:59:34.011Z,7.08
2019-02-26T10:02:04.079Z,6.75
2019-02-26T10:04:32.677Z,7.70
2019-02-26T10:07:02.276Z,7.83
2019-02-26T10:09:32.983Z,6.40
2019-02-26T10:12:02.769Z,6.58
2019-02-26T10:14:33.371Z,7.20
2019-02-26T10:17:01.293Z,6.42
2019-02-26T10:19:31.522Z,6.17
2019-02-26T10:22:00.213Z,7.20
2019-02-26T10:24:30.211Z,6.97
2019-02-26T10:27:03.002Z,6.72
2019-02-26T10:29:29.118Z,5.65
2019-02-26T10:31:57.286Z,6.15
2019-02-26T10:34:30.027Z,6.60
2019-02-26T10:36:55.460Z,6.25
2019-02-26T10:39:25.697Z,7.58
2019-02-26T10:41:53.610Z,6.60
2019-02-26T10:44:21.788Z,6.70
2019-02-26T10:46:50.002Z,6.85
2019-02-26T10:49:18.139Z,6.70
2019-02-26T10:51:46.447Z,7.72
2019-02-26T10:54:17.822Z,8.88
2019-02-26T10:56:45.014Z,7.12
2019-02-26T10:59:15.846Z,7.40
2019-02-26T11:01:43.082Z,7.47
2019-02-26T11:04:11.358Z,7.70
2019-02-26T11:06:41.899Z,7.55
2019-02-26T11:09:17.423Z,7.15
2019-02-26T11:11:42.452Z,7.83
2019-02-26T11:14:13.590Z,7.40
2019-02-26T11:16:40.937Z,7.65
2019-02-26T11:19:10.207Z,7.45
2019-02-26T11:21:39.231Z,8.05
2019-02-26T11:24:08.723Z,6.75
2019-02-26T11:26:38.270Z,7.28
2019-02-26T11:29:07.223Z,7.12
2019-02-26T11:31:36.544Z,8.65
2019-02-26T11:34:07.307Z,8.75
2019-02-26T11:36:38.302Z,8.75
2019-02-26T11:39:09.387Z,9.23
2019-02-26T11:41:38.480Z,9.08
2019-02-26T11:44:12.323Z,9.30
2019-02-26T11:46:37.461Z,9.30
2019-02-26T11:49:05.960Z,8.65
2019-02-26T11:51:37.380Z,9.78
2019-02-26T11:54:08.289Z,8.50
2019-02-26T11:59:07.223Z,8.65
2019-02-26T12:04:06.036Z,6.45
2019-02-26T12:09:03.021Z,9.33
2019-02-26T12:13:58.453Z,8.50
2019-02-26T12:16:28.487Z,8.05
2019-02-26T12:18:58.855Z,9.38
2019-02-26T12:21:28.040Z,9.35
2019-02-26T12:26:27.978Z,8.67
2019-02-26T12:28:57.260Z,7.50
2019-02-26T12:31:28.382Z,7.65
2019-02-26T12:36:24.624Z,9.33
2019-02-26T12:41:22.628Z,7.65
2019-02-26T12:43:50.808Z,6.83
2019-02-26T12:46:19.825Z,8.18
2019-02-26T12:48:50.345Z,5.03
2019-02-26T12:51:19.299Z,8.88
2019-02-26T12:56:17.519Z,6.30
2019-02-26T12:58:48.577Z,6.87
2019-02-26T13:01:15.681Z,5.00
2019-02-26T13:03:47.247Z,7.30
2019-02-26T13:06:16.578Z,6.92
2019-02-26T13:08:47.135Z,7.55
2019-02-26T13:11:16.878Z,7.60
2019-02-26T13:13:45.322Z,8.65
2019-02-26T13:16:13.945Z,5.33
2019-02-26T13:18:42.092Z,8.00
2019-02-26T13:21:13.398Z,4.17
2019-02-26T13:23:40.222Z,6.70
2019-02-26T13:26:10.945Z,8.13
2019-02-26T13:28:41.381Z,8.50
2019-02-26T13:33:41.668Z,7.80
2019-02-26T13:38:44.069Z,3.50
2019-02-26T13:41:25.196Z,8.28
2019-02-26T13:43:34.779Z,4.97
2019-02-26T13:46:03.038Z,5.28
2019-02-26T13:48:31.354Z,8.03
2019-02-26T13:50:59.540Z,8.60
2019-02-26T13:53:27.744Z,8.58
2019-02-26T13:55:56.139Z,7.50
2019-02-26T13:58:24.269Z,9.45
2019-02-26T14:00:52.600Z,7.15
2019-02-26T14:03:20.860Z,8.38
2019-02-26T14:05:49.054Z,5.70
2019-02-26T14:08:17.223Z,6.60
2019-02-26T14:10:45.491Z,8.20
2019-02-26T14:13:13.703Z,4.47
2019-02-26T14:15:42.160Z,4.45
2019-02-26T14:18:10.311Z,5.45
2019-02-26T14:20:42.767Z,7.85
2019-02-26T14:23:10.933Z,7.03
2019-02-26T14:25:39.143Z,6.65
2019-02-26T14:28:07.335Z,5.90
2019-02-26T14:30:36.644Z,5.78
2019-02-26T14:33:04.938Z,6.45
2019-02-26T14:35:33.141Z,5.80
2019-02-26T14:38:01.441Z,4.72
2019-02-26T14:40:29.645Z,6.10
2019-02-26T14:42:57.854Z,5.85
2019-02-26T14:45:26.013Z,3.45
2019-02-26T14:47:54.268Z,4.55
2019-02-26T14:50:22.573Z,4.30
2019-02-26T14:52:50.719Z,4.50
2019-02-26T14:55:18.948Z,4.58
2019-02-26T14:57:49.597Z,5.37
2019-02-26T15:00:20.404Z,4.75
2019-02-26T15:02:48.731Z,4.15
2019-02-26T15:05:17.258Z,4.60
2019-02-26T15:07:45.457Z,5.67
2019-02-26T15:10:14.128Z,5.62
2019-02-26T15:12:42.275Z,5.00
2019-02-26T15:15:10.893Z,4.45
2019-02-26T15:17:39.180Z,3.35
2019-02-26T15:20:09.387Z,6.05
2019-02-26T15:22:38.130Z,4.53
2019-02-26T15:25:08.646Z,5.90
2019-02-26T15:27:38.806Z,4.37
2019-02-26T15:30:07.470Z,4.33
2019-02-26T15:32:35.706Z,4.10
2019-02-26T15:35:04.067Z,4.67
2019-02-26T15:37:32.659Z,4.45
2019-02-26T15:40:01.327Z,4.08
2019-02-26T15:42:29.909Z,3.95
2019-02-26T15:44:59.799Z,3.83
2019-02-26T15:47:28.137Z,3.27
2019-02-26T15:49:56.417Z,3.83
2019-02-26T15:52:24.745Z,3.30
2019-02-26T15:54:53.133Z,3.02
2019-02-26T15:57:21.505Z,3.10
2019-02-26T15:59:51.251Z,2.80
2019-02-26T16:02:19.517Z,1.40
2019-02-26T16:04:47.726Z,3.20
2019-02-26T16:07:16.179Z,4.10
2019-02-26T16:09:44.365Z,3.77
2019-02-26T16:12:12.946Z,3.05
2019-02-26T16:14:41.236Z,3.42
2019-02-26T16:17:09.446Z,2.65
2019-02-26T16:19:38.676Z,2.90
2019-02-26T16:22:07.096Z,3.67
2019-02-26T16:24:35.370Z,3.33
2019-02-26T16:27:03.780Z,3.33
2019-02-26T16:29:32.216Z,3.60
2019-02-26T16:32:02.661Z,3.62
2019-02-26T16:34:30.759Z,4.22
2019-02-26T16:37:03.333Z,3.92
2019-02-26T16:39:32.001Z,4.70
2019-02-26T16:42:00.316Z,3.80
2019-02-26T16:44:29.600Z,4.65
2019-02-26T16:46:58.267Z,5.27
2019-02-26T16:49:27.859Z,6.83
2019-02-26T16:51:56.553Z,6.45
2019-02-26T16:54:24.949Z,8.75
2019-02-26T16:56:54.649Z,9.68
2019-02-26T16:59:23.607Z,7.60
2019-02-26T17:01:52.612Z,7.08
2019-02-26T17:04:21.775Z,6.28
2019-02-26T17:06:51.586Z,5.45
2019-02-26T17:09:21.113Z,5.15
2019-02-26T17:11:49.933Z,3.60
2019-02-26T17:14:18.228Z,5.72
2019-02-26T17:16:46.755Z,5.05
2019-02-26T17:19:15.935Z,9.03
2019-02-26T17:21:44.255Z,8.15
2019-02-26T17:24:14.290Z,5.65
2019-02-26T17:26:46.617Z,5.28
2019-02-26T17:29:16.882Z,6.30
2019-02-26T17:31:46.020Z,5.25
2019-02-26T17:34:14.604Z,6.35
2019-02-26T17:36:43.613Z,7.17
2019-02-26T17:39:12.274Z,6.12
2019-02-26T17:41:44.677Z,8.33
2019-02-26T17:44:11.344Z,6.60
2019-02-26T17:46:40.452Z,5.10
2019-02-26T17:49:09.294Z,6.67
2019-02-26T17:51:37.920Z,6.45
2019-02-26T17:54:06.676Z,6.62
2019-02-26T17:56:35.424Z,7.40
2019-02-26T17:59:03.693Z,7.28
2019-02-26T18:01:32.580Z,7.25
2019-02-26T18:04:01.027Z,8.58
2019-02-26T18:06:29.444Z,13.75
2019-02-26T18:08:58.407Z,13.03
2019-02-26T18:11:27.119Z,10.55
2019-02-26T18:13:57.852Z,6.30
2019-02-26T18:18:54.183Z,9.18
2019-02-26T18:21:22.679Z,13.40
2019-02-26T18:23:51.186Z,8.45
2019-02-26T18:26:19.587Z,9.68
2019-02-26T18:28:48.428Z,7.78
2019-02-26T18:31:26.042Z,7.90
2019-02-26T18:36:14.864Z,7.97
2019-02-26T18:38:43.506Z,6.78
2019-02-26T18:41:12.362Z,7.05
2019-02-26T18:43:42.082Z,6.08
2019-02-26T18:46:10.631Z,6.23
2019-02-26T18:48:39.792Z,5.28
2019-02-26T18:51:08.870Z,6.03
2019-02-26T18:53:37.804Z,6.83
2019-02-26T18:56:06.454Z,6.60
2019-02-26T18:58:36.171Z,7.12
2019-02-26T19:01:04.869Z,6.45
2019-02-26T19:03:33.311Z,7.20
2019-02-26T19:06:03.525Z,6.90
2019-02-26T19:08:32.061Z,6.72
2019-02-26T19:11:02.551Z,6.83
2019-02-26T19:13:33.267Z,6.53
2019-02-26T19:16:01.323Z,5.37
2019-02-26T19:18:29.847Z,5.53
2019-02-26T19:20:58.237Z,6.05
2019-02-26T19:23:31.674Z,5.30
2019-02-26T19:25:57.600Z,6.70
2019-02-26T19:28:26.762Z,5.03
2019-02-26T19:30:55.487Z,6.53
2019-02-26T19:33:47.608Z,6.50
2019-02-26T19:36:17.269Z,5.65
2019-02-26T19:38:46.278Z,6.40
2019-02-26T19:41:15.716Z,6.00
2019-02-26T19:43:44.262Z,6.08
2019-02-26T19:46:16.844Z,5.87
2019-02-26T19:48:46.007Z,5.70
2019-02-26T19:51:14.632Z,6.25
2019-02-26T19:53:43.455Z,6.67
2019-02-26T19:56:12.880Z,5.42
2019-02-26T19:58:42.971Z,6.70
2019-02-26T20:01:12.077Z,6.50
2019-02-26T20:03:41.475Z,5.65
2019-02-26T20:06:10.427Z,6.97
2019-02-26T20:08:39.686Z,6.90
2019-02-26T20:11:08.710Z,12.90
2019-02-26T20:13:42.101Z,13.80
2019-02-26T20:16:08.188Z,9.28
2019-02-26T20:18:38.043Z,8.50
2019-02-26T20:21:07.281Z,9.80
2019-02-26T20:23:36.475Z,8.23
2019-02-26T20:26:05.977Z,8.18
2019-02-26T20:28:35.423Z,7.87
2019-02-26T20:31:05.661Z,7.15
2019-02-26T20:33:35.606Z,6.45
2019-02-26T20:36:04.904Z,8.38
2019-02-26T20:38:35.286Z,7.62
2019-02-26T20:41:04.041Z,7.22
2019-02-26T20:43:36.636Z,7.28
2019-02-26T20:46:08.966Z,6.30
2019-02-26T20:48:38.039Z,7.08
2019-02-26T20:51:06.489Z,5.55
2019-02-26T20:53:36.605Z,6.75
2019-02-26T20:58:33.572Z,6.20
2019-02-26T21:01:03.042Z,7.55
2019-02-26T21:03:31.682Z,7.87
2019-02-26T21:06:00.994Z,8.20
2019-02-26T21:08:31.032Z,9.13
2019-02-26T21:13:27.974Z,8.25
2019-02-26T21:15:56.899Z,8.48
2019-02-26T21:18:25.158Z,8.30
2019-02-26T21:20:53.823Z,7.35
2019-02-26T21:23:22.475Z,6.58
2019-02-26T21:25:51.631Z,8.58
2019-02-26T21:28:21.081Z,8.10
2019-02-26T21:30:49.312Z,8.68
2019-02-26T21:33:18.629Z,9.10
2019-02-26T21:35:47.038Z,8.90
2019-02-26T21:38:15.719Z,7.00
2019-02-26T21:40:44.088Z,8.58
2019-02-26T21:43:12.534Z,8.45
2019-02-26T21:45:41.012Z,7.60
2019-02-26T21:48:09.384Z,7.50
2019-02-26T21:50:38.087Z,7.60
2019-02-26T21:53:06.524Z,7.60
2019-02-26T21:55:43.934Z,6.80
2019-02-26T21:58:04.824Z,7.08
2019-02-26T22:00:33.580Z,6.50
2019-02-26T22:03:01.913Z,6.87
2019-02-26T22:05:30.394Z,6.12
2019-02-26T22:07:58.667Z,5.97
2019-02-26T22:10:26.891Z,6.85
2019-02-26T22:12:56.877Z,6.03
2019-02-26T22:15:25.098Z,6.87
2019-02-26T22:17:57.828Z,7.15
2019-02-26T22:20:35.521Z,7.87
2019-02-26T22:22:53.427Z,5.50
2019-02-26T22:25:21.674Z,7.80
2019-02-26T22:27:49.868Z,7.15
2019-02-26T22:30:21.444Z,6.72
2019-02-26T22:32:48.022Z,5.42
2019-02-26T22:35:16.332Z,6.92
2019-02-26T22:37:44.534Z,6.10
2019-02-26T22:40:13.062Z,6.40
2019-02-26T22:42:41.941Z,6.92
2019-02-26T22:45:10.600Z,7.08
2019-02-26T22:47:40.590Z,6.90
2019-02-26T22:50:10.216Z,7.47
2019-02-26T22:52:38.350Z,5.17
2019-02-26T22:55:07.048Z,6.65
2019-02-26T22:57:35.208Z,6.67
2019-02-26T23:00:03.406Z,6.42
2019-02-26T23:02:32.135Z,6.00
2019-02-26T23:05:00.280Z,5.72
2019-02-26T23:07:28.423Z,7.10
2019-02-26T23:09:57.099Z,5.22
2019-02-26T23:12:25.622Z,6.17
2019-02-26T23:14:54.124Z,5.55
2019-02-26T23:17:24.725Z,6.35
2019-02-26T23:19:52.402Z,6.85
2019-02-26T23:22:20.946Z,7.28
2019-02-26T23:24:50.619Z,6.95
2019-02-26T23:27:18.857Z,7.25
2019-02-26T23:29:47.032Z,6.47
2019-02-26T23:32:15.298Z,7.58
2019-02-26T23:34:43.431Z,6.45
2019-02-26T23:37:11.889Z,5.08
2019-02-26T23:39:40.052Z,6.53
2019-02-26T23:42:08.216Z,6.22
2019-02-26T23:44:36.408Z,7.25
2019-02-26T23:47:04.531Z,7.25
2019-02-26T23:49:32.805Z,7.08
2019-02-26T23:52:01.290Z,6.85
2019-02-26T23:54:29.526Z,5.75
2019-02-26T23:56:57.786Z,6.22
2019-02-26T23:59:26.258Z,5.30
